Time;durP1;ratioP1;P1;durP2;ratioP2;P2;SDS_P1;SDS_P2;PMS_P1;PMS_P2;Temp;Humidity;BMP_temperature;BMP_pressure;BME280_temperature;BME280_humidity;BME280_pressure;Samples;Min_cycle;Max_cycle;Signal;HPM_P1;HPM_P2
2022/03/27 00:02:13;;;;;;;;;;;;;;;7.85;39.32;97526.34;5075448;28;19956;-72
2022/03/27 00:04:38;;;;;;;;;;;;;;;7.81;39.64;97525.06;5075544;28;20097;-71
2022/03/27 00:07:04;;;;;;;;;;;;;;;7.76;38.97;97530.81;5075163;28;19994;-70
2022/03/27 00:09:30;;;;;;;;;;;;;;;7.74;39.33;97522.31;5075005;28;19997;-71
2022/03/27 00:11:56;;;;;;;;;;;;;;;7.70;39.54;97527.06;5075152;28;19964;-71
2022/03/27 00:14:22;;;;;;;;;;;;;;;7.67;39.49;97527.44;5074030;28;20005;-70
2022/03/27 00:16:48;;;;;;;;;;;;;;;7.66;39.74;97522.38;5074950;28;19953;-71
2022/03/27 00:19:14;;;;;;;;;;;;;;;7.62;39.36;97527.16;5075549;28;19954;-71
2022/03/27 00:21:42;;;;;;;;;;;;;;;7.59;39.70;97529.28;5074869;28;19959;-71
2022/03/27 00:24:07;;;;;;;;;;;;;;;7.56;39.91;97520.00;5074962;28;19957;-71
2022/03/27 00:26:33;;;;;;;;;;;;;;;7.55;39.62;97525.38;5074936;28;20000;-70
2022/03/27 00:28:59;;;;;;;;;;;;;;;7.53;39.79;97526.34;5073587;28;20032;-70
2022/03/27 00:31:25;;;;;;;;;;;;;;;7.51;39.91;97515.28;5074684;28;19992;-71
2022/03/27 00:33:51;;;;;;;;;;;;;;;7.49;39.95;97513.81;5073790;28;20382;-71
2022/03/27 00:36:17;;;;;;;;;;;;;;;7.46;40.16;97507.16;5074694;28;19961;-71
2022/03/27 00:38:44;;;;;;;;;;;;;;;7.44;40.13;97503.09;5074520;28;19956;-70
2022/03/27 00:41:11;;;;;;;;;;;;;;;7.43;40.24;97507.50;5074773;28;19954;-70
2022/03/27 00:43:37;;;;;;;;;;;;;;;7.43;40.72;97504.06;5073302;28;19954;-71
2022/03/27 00:46:03;;;;;;;;;;;;;;;7.41;41.12;97501.66;5074643;28;20410;-70
2022/03/27 00:48:29;;;;;;;;;;;;;;;7.37;40.26;97504.75;5074728;28;19976;-71
2022/03/27 00:50:55;;;;;;;;;;;;;;;7.34;41.40;97502.50;5072992;28;20003;-70
2022/03/27 00:53:24;;;;;;;;;;;;;;;7.34;41.01;97492.06;5074723;28;20042;-71
2022/03/27 00:55:50;;;;;;;;;;;;;;;7.31;41.46;97490.63;5073018;28;20424;-71
2022/03/27 00:58:16;;;;;;;;;;;;;;;7.27;40.36;97490.13;5074308;28;19956;-70
2022/03/27 01:00:45;;;;;;;;;;;;;;;7.26;41.05;97500.72;5074045;28;19965;-71
2022/03/27 01:03:12;;;;;;;;;;;;;;;7.25;40.61;97491.28;5074272;28;20001;-71
2022/03/27 01:05:39;;;;;;;;;;;;;;;7.25;40.53;97494.72;5074224;28;19959;-70
2022/03/27 01:08:06;;;;;;;;;;;;;;;7.24;40.31;97495.69;5073602;28;20429;-71
2022/03/27 01:10:32;;;;;;;;;;;;;;;7.25;41.13;97488.69;5074282;28;19955;-70
2022/03/27 01:12:58;;;;;;;;;;;;;;;7.24;41.24;97485.25;5073881;28;19958;-71
2022/03/27 01:15:27;;;;;;;;;;;;;;;7.25;40.68;97481.66;5074027;28;19993;-71
2022/03/27 01:17:53;;;;;;;;;;;;;;;7.24;40.74;97487.03;5073845;28;19955;-71
2022/03/27 01:20:27;;;;;;;;;;;;;;;7.23;40.89;97486.25;5074395;28;20011;-71
2022/03/27 01:22:53;;;;;;;;;;;;;;;7.23;41.38;97481.03;5073889;28;19953;-70
2022/03/27 01:25:19;;;;;;;;;;;;;;;7.22;41.70;97479.38;5072716;28;20338;-71
2022/03/27 01:27:44;;;;;;;;;;;;;;;7.21;41.72;97485.59;5073597;28;19954;-71
2022/03/27 01:30:10;;;;;;;;;;;;;;;7.21;41.41;97482.19;5073783;28;19973;-71
2022/03/27 01:32:36;;;;;;;;;;;;;;;7.20;41.38;97480.53;5073675;28;19948;-71
2022/03/27 01:35:02;;;;;;;;;;;;;;;7.19;41.83;97489.38;5073896;28;20006;-70
2022/03/27 01:37:28;;;;;;;;;;;;;;;7.19;41.74;97482.34;5073724;28;19956;-71
2022/03/27 01:39:54;;;;;;;;;;;;;;;7.21;41.83;97484.78;5073941;28;19963;-71
2022/03/27 01:42:20;;;;;;;;;;;;;;;7.21;41.53;97479.56;5073513;28;20049;-70
2022/03/27 01:44:46;;;;;;;;;;;;;;;7.21;41.89;97490.00;5073525;28;19978;-70
2022/03/27 01:47:12;;;;;;;;;;;;;;;7.18;41.43;97485.13;5073997;28;20431;-71
2022/03/27 01:49:40;;;;;;;;;;;;;;;7.10;42.16;97494.63;5073328;28;19973;-71
2022/03/27 01:52:06;;;;;;;;;;;;;;;7.03;41.85;97495.44;5073548;28;19978;-71
2022/03/27 01:54:32;;;;;;;;;;;;;;;6.96;42.38;97487.50;5073681;28;19954;-71
2022/03/27 01:56:58;;;;;;;;;;;;;;;6.90;42.54;97488.97;5073700;28;19953;-70
2022/03/27 01:59:24;;;;;;;;;;;;;;;6.85;42.45;97486.06;5073305;28;20324;-70
2022/03/27 02:01:50;;;;;;;;;;;;;;;6.81;42.40;97482.19;5073648;28;19953;-70
2022/03/27 02:04:16;;;;;;;;;;;;;;;6.74;42.97;97481.22;5073608;28;19974;-70
2022/03/27 02:06:43;;;;;;;;;;;;;;;6.69;43.20;97480.91;5072116;28;19958;-70
2022/03/27 02:09:10;;;;;;;;;;;;;;;6.65;42.45;97483.03;5073199;28;19969;-72
2022/03/27 02:11:36;;;;;;;;;;;;;;;6.63;42.91;97484.19;5057209;28;19945;-71
2022/03/27 02:14:02;;;;;;;;;;;;;;;6.61;42.97;97486.13;5073440;28;20293;-71
2022/03/27 02:16:28;;;;;;;;;;;;;;;6.58;43.01;97484.69;5073717;28;19954;-71
2022/03/27 02:18:54;;;;;;;;;;;;;;;6.55;43.20;97487.63;5074202;28;19955;-71
2022/03/27 02:21:20;;;;;;;;;;;;;;;6.50;43.63;97484.69;5076117;28;20429;-71
2022/03/27 02:23:46;;;;;;;;;;;;;;;6.44;43.56;97483.56;5077375;28;19956;-71
2022/03/27 02:26:11;;;;;;;;;;;;;;;6.38;43.59;97483.41;5077071;28;19956;-70
2022/03/27 02:28:38;;;;;;;;;;;;;;;6.32;43.51;97491.88;5076974;28;19968;-70
2022/03/27 02:31:04;;;;;;;;;;;;;;;6.25;43.67;97487.34;5077158;28;19949;-70
2022/03/27 02:33:30;;;;;;;;;;;;;;;6.19;44.01;97488.00;5076930;28;19978;-70
2022/03/27 02:35:56;;;;;;;;;;;;;;;6.16;43.66;97487.53;5077003;28;19963;-71
2022/03/27 02:38:22;;;;;;;;;;;;;;;6.12;44.36;97489.63;5076923;28;20039;-71
2022/03/27 02:40:48;;;;;;;;;;;;;;;6.10;44.44;97499.41;5076869;28;20306;-71
2022/03/27 02:43:14;;;;;;;;;;;;;;;6.07;44.16;97487.53;5077053;28;19955;-71
2022/03/27 02:45:40;;;;;;;;;;;;;;;6.07;44.48;97491.94;5076668;28;20302;-70
2022/03/27 02:48:06;;;;;;;;;;;;;;;6.05;44.78;97493.88;5076704;28;19952;-70
2022/03/27 02:50:32;;;;;;;;;;;;;;;6.03;44.70;97478.41;5076834;28;19945;-71
2022/03/27 02:52:58;;;;;;;;;;;;;;;6.01;45.02;97482.97;5076819;28;20405;-70
2022/03/27 02:55:24;;;;;;;;;;;;;;;6.00;44.72;97486.53;5076886;28;19982;-70
2022/03/27 02:57:51;;;;;;;;;;;;;;;6.00;44.89;97485.72;5076586;28;19958;-70
2022/03/27 03:00:17;;;;;;;;;;;;;;;5.98;45.06;97488.50;5076445;28;19949;-70
2022/03/27 03:02:43;;;;;;;;;;;;;;;5.96;44.87;97489.63;5076306;28;20404;-71
2022/03/27 03:05:09;;;;;;;;;;;;;;;5.93;45.28;97489.94;5076419;28;19981;-71
2022/03/27 03:07:38;;;;;;;;;;;;;;;5.89;45.24;97482.44;5076513;28;19960;-72
2022/03/27 03:10:04;;;;;;;;;;;;;;;5.87;45.32;97488.78;5076557;28;19964;-71
2022/03/27 03:12:30;;;;;;;;;;;;;;;5.90;50.99;97485.88;5076439;28;19963;-70
2022/03/27 03:14:56;;;;;;;;;;;;;;;5.99;46.65;97478.91;5076012;28;19953;-70
2022/03/27 03:17:23;;;;;;;;;;;;;;;6.00;45.69;97470.09;5076472;28;20039;-70
2022/03/27 03:19:48;;;;;;;;;;;;;;;5.96;45.60;97482.63;5076504;28;19955;-70
2022/03/27 03:22:14;;;;;;;;;;;;;;;5.89;45.76;97487.66;5075947;28;20294;-71
2022/03/27 03:24:41;;;;;;;;;;;;;;;5.82;45.63;97478.88;5075259;28;20344;-70
2022/03/27 03:27:07;;;;;;;;;;;;;;;5.78;45.62;97482.78;5075957;28;19949;-70
2022/03/27 03:29:33;;;;;;;;;;;;;;;5.70;45.89;97482.75;5075940;28;20037;-70
2022/03/27 03:31:59;;;;;;;;;;;;;;;5.63;46.21;97484.38;5076164;28;19955;-71
2022/03/27 03:34:24;;;;;;;;;;;;;;;5.57;46.42;97485.84;5074746;28;19962;-71
2022/03/27 03:36:50;;;;;;;;;;;;;;;5.52;46.36;97484.69;5076116;28;19951;-71
2022/03/27 03:39:16;;;;;;;;;;;;;;;5.45;46.22;97481.91;5075772;28;19966;-71
2022/03/27 03:41:42;;;;;;;;;;;;;;;5.39;46.60;97488.56;5075913;28;20034;-70
2022/03/27 03:44:08;;;;;;;;;;;;;;;5.33;46.66;97489.19;5075959;28;20410;-71
2022/03/27 03:46:34;;;;;;;;;;;;;;;5.27;46.59;97488.06;5075644;28;19962;-71
2022/03/27 03:49:00;;;;;;;;;;;;;;;5.21;46.85;97490.47;5075862;28;19978;-71
2022/03/27 03:51:26;;;;;;;;;;;;;;;5.15;46.94;97483.31;5075556;28;20004;-71
2022/03/27 03:53:52;;;;;;;;;;;;;;;5.08;47.33;97483.94;5075307;28;19951;-71
2022/03/27 03:56:18;;;;;;;;;;;;;;;5.04;47.45;97482.63;5074406;28;19956;-70
2022/03/27 03:58:44;;;;;;;;;;;;;;;5.00;47.85;97496.91;5075587;28;19966;-70
2022/03/27 04:01:10;;;;;;;;;;;;;;;4.99;47.80;97494.44;5075596;28;19951;-70
2022/03/27 04:03:36;;;;;;;;;;;;;;;4.98;47.71;97496.25;5075676;28;20345;-72
2022/03/27 04:06:02;;;;;;;;;;;;;;;4.95;48.13;97493.94;5075409;28;19964;-71
2022/03/27 04:08:27;;;;;;;;;;;;;;;4.91;47.97;97492.63;5075197;28;19958;-71
2022/03/27 04:10:53;;;;;;;;;;;;;;;4.87;48.09;97493.91;5075170;28;20007;-71
2022/03/27 04:13:19;;;;;;;;;;;;;;;4.83;49.63;97496.03;5075201;28;20404;-70
2022/03/27 04:15:46;;;;;;;;;;;;;;;4.82;49.07;97485.78;5075149;28;20466;-71
2022/03/27 04:18:12;;;;;;;;;;;;;;;4.81;49.25;97497.16;5075221;28;19955;-71
2022/03/27 04:20:40;;;;;;;;;;;;;;;4.77;49.15;97485.44;5075075;28;19959;-71
2022/03/27 04:23:06;;;;;;;;;;;;;;;4.75;48.84;97484.78;5074916;28;19950;-70
2022/03/27 04:25:32;;;;;;;;;;;;;;;4.74;49.29;97488.31;5075177;28;20009;-70
2022/03/27 04:28:02;;;;;;;;;;;;;;;4.76;48.95;97491.59;5075148;28;19980;-71
2022/03/27 04:30:28;;;;;;;;;;;;;;;4.76;50.03;97492.41;5075065;28;19972;-71
2022/03/27 04:32:54;;;;;;;;;;;;;;;4.76;49.23;97479.41;5075019;28;19974;-71
2022/03/27 04:35:20;;;;;;;;;;;;;;;4.79;48.92;97486.09;5075168;28;19952;-71
2022/03/27 04:37:47;;;;;;;;;;;;;;;4.81;49.22;97490.16;5074628;28;19960;-71
2022/03/27 04:40:13;;;;;;;;;;;;;;;4.80;48.98;97488.50;5075424;28;19975;-71
2022/03/27 04:42:42;;;;;;;;;;;;;;;4.79;48.14;97486.09;5073785;28;19956;-71
2022/03/27 04:45:08;;;;;;;;;;;;;;;4.77;48.15;97488.03;5074470;28;19958;-71
2022/03/27 04:47:34;;;;;;;;;;;;;;;4.72;48.15;97488.47;5074492;28;19957;-71
2022/03/27 04:50:01;;;;;;;;;;;;;;;4.69;47.97;97491.41;5074852;28;19975;-70
2022/03/27 04:52:27;;;;;;;;;;;;;;;4.66;48.53;97486.50;5074267;28;19942;-71
2022/03/27 04:54:53;;;;;;;;;;;;;;;4.61;48.53;97493.94;5074380;28;19957;-71
2022/03/27 04:57:21;;;;;;;;;;;;;;;4.56;49.45;97491.00;5074372;28;19959;-71
2022/03/27 04:59:47;;;;;;;;;;;;;;;4.51;48.81;97491.44;5074305;28;19945;-71
2022/03/27 05:02:13;;;;;;;;;;;;;;;4.46;48.88;97496.31;5074140;28;19966;-71
2022/03/27 05:04:40;;;;;;;;;;;;;;;4.41;49.65;97506.31;5075265;28;19968;-71
2022/03/27 05:07:06;;;;;;;;;;;;;;;4.37;50.01;97502.41;5073103;28;19961;-71
2022/03/27 05:09:32;;;;;;;;;;;;;;;4.34;48.92;97500.13;5074479;28;19964;-71
2022/03/27 05:11:58;;;;;;;;;;;;;;;4.29;48.96;97508.38;5074233;28;19961;-71
2022/03/27 05:14:24;;;;;;;;;;;;;;;4.25;48.78;97504.44;5072869;28;19953;-72
2022/03/27 05:16:50;;;;;;;;;;;;;;;4.21;49.46;97511.72;5074531;28;19954;-71
2022/03/27 05:19:16;;;;;;;;;;;;;;;4.17;49.38;97509.56;5074013;28;19963;-71
2022/03/27 05:21:42;;;;;;;;;;;;;;;4.15;49.70;97512.31;5073741;28;19947;-71
2022/03/27 05:24:09;;;;;;;;;;;;;;;4.13;49.24;97510.84;5074266;28;19969;-71
2022/03/27 05:26:35;;;;;;;;;;;;;;;4.12;50.06;97512.63;5074133;28;19986;-71
2022/03/27 05:29:04;;;;;;;;;;;;;;;4.12;49.82;97512.63;5073245;28;19969;-71
2022/03/27 05:31:30;;;;;;;;;;;;;;;4.13;49.94;97513.44;5073717;28;20358;-71
2022/03/27 05:33:56;;;;;;;;;;;;;;;4.12;49.79;97517.00;5074190;28;20047;-71
2022/03/27 05:36:21;;;;;;;;;;;;;;;4.13;49.90;97523.81;5073540;28;20419;-71
2022/03/27 05:38:47;;;;;;;;;;;;;;;4.13;49.55;97518.63;5073904;28;19956;-71
2022/03/27 05:41:13;;;;;;;;;;;;;;;4.12;49.75;97523.00;5073650;28;19949;-70
2022/03/27 05:43:39;;;;;;;;;;;;;;;4.14;49.96;97517.69;5073602;28;19948;-70
2022/03/27 05:46:05;;;;;;;;;;;;;;;4.16;49.65;97521.75;5073635;28;19973;-71
2022/03/27 05:48:31;;;;;;;;;;;;;;;4.43;49.47;97523.41;5073528;28;19949;-71
2022/03/27 05:50:57;;;;;;;;;;;;;;;5.01;49.17;97526.31;5073757;28;20009;-71
2022/03/27 05:53:23;;;;;;;;;;;;;;;5.67;47.94;97522.13;5073779;28;19963;-71
2022/03/27 05:55:49;;;;;;;;;;;;;;;6.29;46.81;97517.28;5073524;28;19950;-71
2022/03/27 05:58:16;;;;;;;;;;;;;;;6.89;45.69;97512.63;5073580;28;19962;-71
2022/03/27 06:00:42;;;;;;;;;;;;;;;7.46;44.60;97508.97;5073321;28;19951;-71
2022/03/27 06:03:08;;;;;;;;;;;;;;;7.99;43.71;97509.09;5073302;28;20036;-71
2022/03/27 06:05:34;;;;;;;;;;;;;;;8.50;42.91;97504.94;5072655;28;19962;-71
2022/03/27 06:08:00;;;;;;;;;;;;;;;9.03;42.04;97515.34;5073684;28;19958;-71
2022/03/27 06:10:27;;;;;;;;;;;;;;;9.51;41.11;97505.25;5073302;28;19999;-71
2022/03/27 06:12:53;;;;;;;;;;;;;;;9.96;40.44;97512.94;5073417;28;20457;-71
2022/03/27 06:15:19;;;;;;;;;;;;;;;10.34;39.88;97513.50;5073139;28;19996;-71
2022/03/27 06:17:46;;;;;;;;;;;;;;;10.66;39.25;97506.06;5073583;28;19975;-72
2022/03/27 06:20:13;;;;;;;;;;;;;;;10.97;38.95;97510.06;5073736;28;19950;-71
2022/03/27 06:22:40;;;;;;;;;;;;;;;11.30;38.30;97509.44;5073389;28;19954;-70
2022/03/27 06:25:07;;;;;;;;;;;;;;;11.58;37.58;97509.31;5073198;28;19955;-70
2022/03/27 06:27:33;;;;;;;;;;;;;;;11.83;37.10;97509.56;5073238;28;19960;-71
2022/03/27 06:29:59;;;;;;;;;;;;;;;12.04;36.30;97513.09;5072869;28;19968;-71
2022/03/27 06:32:26;;;;;;;;;;;;;;;12.26;36.70;97508.44;5073075;28;19958;-71
2022/03/27 06:34:56;;;;;;;;;;;;;;;12.49;36.39;97510.66;5073443;28;19959;-71
2022/03/27 06:37:23;;;;;;;;;;;;;;;12.72;36.17;97508.41;5072932;28;19957;-71
2022/03/27 06:39:49;;;;;;;;;;;;;;;12.95;36.14;97509.78;5073006;28;19955;-70
2022/03/27 06:42:15;;;;;;;;;;;;;;;13.08;36.02;97506.28;5072986;28;19970;-71
2022/03/27 06:44:41;;;;;;;;;;;;;;;13.16;35.85;97506.06;5073253;28;20033;-71
2022/03/27 06:47:08;;;;;;;;;;;;;;;13.32;35.56;97508.28;5073171;28;19952;-71
2022/03/27 06:49:34;;;;;;;;;;;;;;;13.48;35.92;97507.00;5073119;28;19967;-71
2022/03/27 06:52:00;;;;;;;;;;;;;;;13.60;35.73;97507.13;5073358;28;20001;-71
2022/03/27 06:54:26;;;;;;;;;;;;;;;13.82;35.16;97505.00;5073103;28;19946;-71
2022/03/27 06:56:52;;;;;;;;;;;;;;;14.05;35.57;97512.34;5071584;28;20010;-71
2022/03/27 06:59:18;;;;;;;;;;;;;;;14.24;35.23;97513.22;5073204;28;19980;-72
2022/03/27 07:04:28;;;;;;;;;;;;;;;14.79;34.33;97502.00;5072965;28;19979;-71
2022/03/27 07:06:54;;;;;;;;;;;;;;;15.04;34.03;97507.22;5076649;28;20071;-71
2022/03/27 07:09:20;;;;;;;;;;;;;;;15.16;33.92;97505.47;5075103;28;20031;-71
2022/03/27 07:11:46;;;;;;;;;;;;;;;15.12;33.90;97506.13;5077019;28;19957;-71
2022/03/27 07:14:13;;;;;;;;;;;;;;;14.99;33.81;97509.72;5076485;28;19957;-71
2022/03/27 07:16:40;;;;;;;;;;;;;;;14.92;33.73;97504.50;5076393;28;19956;-71
2022/03/27 07:19:06;;;;;;;;;;;;;;;14.93;33.83;97503.50;5076563;28;19958;-71
2022/03/27 07:21:31;;;;;;;;;;;;;;;14.88;33.54;97502.53;5076212;28;19975;-72
2022/03/27 07:23:58;;;;;;;;;;;;;;;14.90;34.25;97508.41;5076291;28;19958;-71
2022/03/27 07:26:24;;;;;;;;;;;;;;;14.93;34.16;97506.13;5076352;28;19965;-71
2022/03/27 07:28:50;;;;;;;;;;;;;;;15.09;34.78;97504.72;5076147;28;19959;-71
2022/03/27 07:31:16;;;;;;;;;;;;;;;15.30;34.16;97506.09;5076307;28;19982;-71
2022/03/27 07:33:42;;;;;;;;;;;;;;;15.45;33.92;97504.91;5076100;28;19956;-71
2022/03/27 07:36:08;;;;;;;;;;;;;;;15.69;33.81;97511.13;5075877;28;19963;-72
2022/03/27 07:38:34;;;;;;;;;;;;;;;15.90;33.44;97507.22;5076107;28;19954;-71
2022/03/27 07:41:00;;;;;;;;;;;;;;;16.07;33.43;97505.53;5075986;28;19962;-71
2022/03/27 07:43:27;;;;;;;;;;;;;;;16.16;32.81;97508.66;5075910;28;19956;-71
2022/03/27 07:45:52;;;;;;;;;;;;;;;16.27;32.93;97507.84;5075729;28;19952;-71
2022/03/27 07:48:18;;;;;;;;;;;;;;;16.28;32.59;97509.47;5075930;28;20373;-71
2022/03/27 07:50:46;;;;;;;;;;;;;;;16.34;32.22;97491.88;5075656;28;20339;-72
2022/03/27 07:53:12;;;;;;;;;;;;;;;16.43;32.66;97509.03;5066588;28;19959;-71
2022/03/27 07:55:37;;;;;;;;;;;;;;;16.44;32.74;97507.97;5075642;28;19958;-71
2022/03/27 07:58:03;;;;;;;;;;;;;;;16.52;32.63;97504.19;5075463;28;20005;-71
2022/03/27 08:00:29;;;;;;;;;;;;;;;16.60;33.29;97504.66;5074180;28;20008;-72
2022/03/27 08:02:56;;;;;;;;;;;;;;;16.66;32.39;97502.94;5075659;28;19980;-70
2022/03/27 08:05:22;;;;;;;;;;;;;;;16.80;32.29;97507.00;5075347;28;19956;-73
2022/03/27 08:07:48;;;;;;;;;;;;;;;16.92;32.45;97506.97;5075207;28;19957;-71
2022/03/27 08:10:15;;;;;;;;;;;;;;;17.03;32.23;97498.22;5075193;28;19972;-73
2022/03/27 08:12:42;;;;;;;;;;;;;;;17.30;32.24;97510.13;5059160;28;19954;-71
2022/03/27 08:15:08;;;;;;;;;;;;;;;17.61;32.67;97508.88;5075468;28;19954;-71
2022/03/27 08:17:34;;;;;;;;;;;;;;;17.97;31.96;97501.59;5074130;28;19947;-73
2022/03/27 08:20:00;;;;;;;;;;;;;;;18.25;31.51;97503.41;5075277;28;20403;-72
2022/03/27 08:22:26;;;;;;;;;;;;;;;18.26;31.23;97505.81;5074970;28;20319;-71
2022/03/27 08:24:52;;;;;;;;;;;;;;;18.21;31.23;97507.59;5075278;28;19955;-72
2022/03/27 08:27:20;;;;;;;;;;;;;;;18.16;31.17;97502.19;5075543;28;19959;-72
2022/03/27 08:29:46;;;;;;;;;;;;;;;18.01;31.49;97502.72;5074863;28;19967;-70
2022/03/27 08:32:14;;;;;;;;;;;;;;;18.08;31.42;97506.06;5075180;28;19951;-71
2022/03/27 08:34:41;;;;;;;;;;;;;;;18.09;31.00;97499.69;5074650;28;19957;-72
2022/03/27 08:37:08;;;;;;;;;;;;;;;17.89;30.92;97505.47;5075015;28;19951;-71
2022/03/27 08:39:34;;;;;;;;;;;;;;;17.86;30.98;97500.63;5074836;28;20314;-72
2022/03/27 08:42:00;;;;;;;;;;;;;;;17.65;31.54;97504.72;5075054;28;20316;-72
2022/03/27 08:44:27;;;;;;;;;;;;;;;17.82;31.58;97508.25;5075115;28;19954;-71
2022/03/27 08:46:54;;;;;;;;;;;;;;;17.96;31.22;97503.47;5074631;28;20411;-71
2022/03/27 08:49:26;;;;;;;;;;;;;;;17.91;31.32;97502.56;5074662;28;19956;-72
2022/03/27 08:52:01;;;;;;;;;;;;;;;17.92;31.44;97504.97;5074428;28;19950;-72
2022/03/27 08:54:47;;;;;;;;;;;;;;;18.10;31.33;97498.66;5074520;28;20423;-71
2022/03/27 08:57:32;;;;;;;;;;;;;;;18.32;30.79;97504.03;5074366;28;19953;-71
2022/03/27 08:59:59;;;;;;;;;;;;;;;18.46;29.94;97512.50;5061348;28;20029;-71
2022/03/27 09:02:25;;;;;;;;;;;;;;;18.39;30.52;97506.53;5074136;28;20410;-71
2022/03/27 09:04:52;;;;;;;;;;;;;;;18.51;30.58;97504.59;5074169;28;19963;-69
2022/03/27 09:07:18;;;;;;;;;;;;;;;18.65;30.74;97505.09;5074495;28;19954;-68
2022/03/27 09:09:44;;;;;;;;;;;;;;;18.65;30.67;97510.41;5074120;28;19955;-68
2022/03/27 09:12:10;;;;;;;;;;;;;;;18.64;30.61;97500.81;5074182;28;20004;-68
2022/03/27 09:14:39;;;;;;;;;;;;;;;18.58;30.66;97501.78;5073902;28;19943;-68
2022/03/27 09:17:06;;;;;;;;;;;;;;;18.43;30.47;97505.81;5074123;28;19961;-69
2022/03/27 09:19:39;;;;;;;;;;;;;;;18.33;30.71;97504.84;5058131;28;19954;-68
2022/03/27 09:22:13;;;;;;;;;;;;;;;18.21;30.37;97510.25;5073930;28;20334;-68
2022/03/27 09:24:39;;;;;;;;;;;;;;;18.29;30.95;97509.03;5073789;28;20410;-68
2022/03/27 09:27:05;;;;;;;;;;;;;;;18.28;30.27;97518.84;5074139;28;19956;-68
2022/03/27 09:29:50;;;;;;;;;;;;;;;18.26;30.59;97513.78;5073423;28;19955;-68
2022/03/27 09:32:29;;;;;;;;;;;;;;;18.35;30.33;97514.19;5074146;28;19955;-68
2022/03/27 09:34:58;;;;;;;;;;;;;;;18.45;29.95;97511.69;5073874;28;19949;-68
2022/03/27 09:37:28;;;;;;;;;;;;;;;18.39;28.88;97514.50;5073973;28;20326;-68
2022/03/27 09:39:56;;;;;;;;;;;;;;;18.21;28.67;97507.59;5073643;28;19988;-68
2022/03/27 09:42:22;;;;;;;;;;;;;;;18.13;30.97;97506.13;5074034;28;19950;-68
2022/03/27 09:44:50;;;;;;;;;;;;;;;18.07;29.20;97507.09;5073571;28;20323;-69
2022/03/27 09:47:16;;;;;;;;;;;;;;;18.07;30.44;97507.09;5073509;28;19957;-68
2022/03/27 09:49:43;;;;;;;;;;;;;;;18.14;30.37;97507.75;5073431;28;20005;-69
2022/03/27 09:52:10;;;;;;;;;;;;;;;18.21;28.98;97497.78;5073351;28;19953;-69
2022/03/27 09:54:54;;;;;;;;;;;;;;;18.18;27.83;97505.41;5073670;28;19962;-68
2022/03/27 09:57:21;;;;;;;;;;;;;;;17.97;27.96;97505.06;5058638;28;19954;-68
2022/03/27 09:59:47;;;;;;;;;;;;;;;17.78;26.87;97503.63;5072330;28;19952;-70
2022/03/27 10:02:17;;;;;;;;;;;;;;;17.76;29.26;97498.53;5073248;28;19958;-70
2022/03/27 10:04:59;;;;;;;;;;;;;;;17.73;29.23;97498.25;5073457;28;20417;-69
2022/03/27 10:07:26;;;;;;;;;;;;;;;17.67;27.85;97494.69;5073257;28;19952;-69
2022/03/27 10:09:53;;;;;;;;;;;;;;;17.52;28.69;97491.75;5073379;28;19948;-69
2022/03/27 10:12:25;;;;;;;;;;;;;;;17.65;29.74;97494.09;5073381;28;19964;-69
2022/03/27 10:14:54;;;;;;;;;;;;;;;17.90;29.07;97485.03;5057976;28;19953;-69
2022/03/27 10:17:22;;;;;;;;;;;;;;;18.03;27.85;97488.16;5073198;28;19953;-69
2022/03/27 10:19:54;;;;;;;;;;;;;;;18.15;28.22;97488.09;5073425;28;19955;-69
2022/03/27 10:22:21;;;;;;;;;;;;;;;18.31;28.26;97480.38;5073362;28;19949;-69
2022/03/27 10:24:51;;;;;;;;;;;;;;;18.53;27.03;97475.16;5073170;28;20391;-69
2022/03/27 10:27:18;;;;;;;;;;;;;;;18.57;26.51;97478.94;5073138;28;19955;-70
2022/03/27 10:29:45;;;;;;;;;;;;;;;18.42;25.87;97471.53;5073163;28;19964;-70
2022/03/27 10:32:11;;;;;;;;;;;;;;;18.28;27.20;97463.09;5073277;28;19965;-70
2022/03/27 10:34:43;;;;;;;;;;;;;;;18.16;25.53;97472.97;5073133;28;20007;-70
2022/03/27 10:37:27;;;;;;;;;;;;;;;18.08;26.48;97460.94;5073728;28;19962;-69
2022/03/27 10:40:00;;;;;;;;;;;;;;;18.03;25.21;97464.28;5073431;28;19977;-69
2022/03/27 10:42:29;;;;;;;;;;;;;;;18.06;25.32;97460.38;5077284;28;19949;-69
2022/03/27 10:45:02;;;;;;;;;;;;;;;18.18;26.39;97460.25;5076634;28;20401;-70
2022/03/27 10:47:29;;;;;;;;;;;;;;;18.45;25.86;97455.91;5075873;28;20328;-70
2022/03/27 10:50:01;;;;;;;;;;;;;;;18.75;26.36;97467.19;5076730;28;19956;-69
2022/03/27 10:52:27;;;;;;;;;;;;;;;18.98;24.32;97455.56;5076597;28;20460;-69
2022/03/27 10:54:56;;;;;;;;;;;;;;;19.16;25.50;97459.78;5076794;28;19956;-69
2022/03/27 10:57:32;;;;;;;;;;;;;;;19.22;24.96;97454.28;5076911;28;20433;-69
2022/03/27 10:59:58;;;;;;;;;;;;;;;19.49;25.08;97456.19;5076473;28;19958;-69
2022/03/27 11:02:44;;;;;;;;;;;;;;;19.75;24.80;97446.59;5076356;28;19962;-69
2022/03/27 11:05:28;;;;;;;;;;;;;;;19.91;24.67;97452.88;5076704;28;19959;-69
2022/03/27 11:08:17;;;;;;;;;;;;;;;20.02;22.63;97445.78;5076330;28;19964;-69
2022/03/27 11:10:54;;;;;;;;;;;;;;;20.15;23.83;97440.00;5076465;28;19975;-69
2022/03/27 11:13:26;;;;;;;;;;;;;;;19.98;23.53;97440.16;5065185;28;19961;-69
2022/03/27 11:16:05;;;;;;;;;;;;;;;19.95;23.58;97435.34;5076575;28;19960;-70
2022/03/27 11:18:35;;;;;;;;;;;;;;;20.02;22.91;97433.25;5066067;28;19956;-69
2022/03/27 11:21:01;;;;;;;;;;;;;;;20.02;24.24;97430.59;5076417;28;19960;-70
2022/03/27 11:23:28;;;;;;;;;;;;;;;20.11;24.33;97427.47;5076491;28;19959;-69
2022/03/27 11:25:55;;;;;;;;;;;;;;;20.28;24.42;97417.47;5076999;27;19958;-69
2022/03/27 11:28:21;;;;;;;;;;;;;;;20.46;24.08;97417.06;5076380;28;20330;-69
2022/03/27 11:30:47;;;;;;;;;;;;;;;20.60;23.84;97417.44;5075882;28;19955;-69
2022/03/27 11:33:19;;;;;;;;;;;;;;;20.67;24.36;97415.34;5075988;28;19965;-68
2022/03/27 11:36:00;;;;;;;;;;;;;;;20.73;22.21;97431.38;5076006;28;20406;-69
2022/03/27 11:38:27;;;;;;;;;;;;;;;20.41;22.99;97418.88;5076167;28;19952;-68
2022/03/27 11:40:55;;;;;;;;;;;;;;;20.37;22.82;97420.44;5075986;28;19963;-69
2022/03/27 11:43:27;;;;;;;;;;;;;;;20.39;23.18;97419.16;5076548;28;19961;-68
2022/03/27 11:45:54;;;;;;;;;;;;;;;20.24;22.88;97421.69;5075763;28;19956;-68
2022/03/27 11:48:20;;;;;;;;;;;;;;;20.29;23.54;97416.41;5075655;28;19957;-68
2022/03/27 11:50:46;;;;;;;;;;;;;;;20.36;24.30;97417.00;5075438;28;19968;-69
2022/03/27 11:53:12;;;;;;;;;;;;;;;20.48;23.52;97406.94;5075721;28;19955;-68
2022/03/27 11:55:39;;;;;;;;;;;;;;;20.72;24.01;97409.22;5075505;28;19999;-68
2022/03/27 11:58:07;;;;;;;;;;;;;;;20.84;23.72;97412.47;5075677;28;19952;-68
2022/03/27 12:00:35;;;;;;;;;;;;;;;21.03;23.54;97404.03;5075343;28;19968;-68
2022/03/27 12:03:02;;;;;;;;;;;;;;;21.23;21.35;97400.59;5075279;28;20360;-69
2022/03/27 12:05:37;;;;;;;;;;;;;;;21.25;21.02;97399.28;5075317;28;19956;-68
2022/03/27 12:08:04;;;;;;;;;;;;;;;21.29;22.38;97399.53;5075793;28;19959;-68
2022/03/27 12:10:57;;;;;;;;;;;;;;;21.40;23.34;97398.53;5075078;28;19962;-68
2022/03/27 12:13:23;;;;;;;;;;;;;;;21.63;22.10;97393.78;5075135;28;19952;-68
2022/03/27 12:15:53;;;;;;;;;;;;;;;21.19;20.60;97389.66;5075013;28;19951;-69
2022/03/27 12:18:27;;;;;;;;;;;;;;;20.94;22.08;97390.41;5075272;28;19961;-69
2022/03/27 12:20:53;;;;;;;;;;;;;;;20.95;22.75;97380.53;5075251;28;19965;-68
2022/03/27 12:23:39;;;;;;;;;;;;;;;21.08;22.66;97383.50;5074855;28;19956;-68
2022/03/27 12:31:51;;;;;;;;;;;;;;;21.55;21.99;97381.75;5074772;28;20418;-69
2022/03/27 12:34:17;;;;;;;;;;;;;;;21.63;20.76;97380.44;5075027;28;19960;-69
2022/03/27 12:37:09;;;;;;;;;;;;;;;21.49;21.37;97378.28;5074562;28;20349;-69
2022/03/27 12:39:36;;;;;;;;;;;;;;;21.54;21.74;97377.47;5074810;28;19944;-69
2022/03/27 12:42:02;;;;;;;;;;;;;;;21.47;21.84;97380.41;5074698;28;20032;-69
2022/03/27 12:44:47;;;;;;;;;;;;;;;21.55;21.46;97375.63;5074546;28;19952;-69
2022/03/27 12:47:13;;;;;;;;;;;;;;;21.74;21.33;97373.22;5074355;28;19949;-69
2022/03/27 12:49:46;;;;;;;;;;;;;;;21.73;21.33;97366.28;5074554;28;20009;-70
2022/03/27 12:52:12;;;;;;;;;;;;;;;21.72;21.79;97362.81;5074568;28;19970;-68
2022/03/27 12:54:53;;;;;;;;;;;;;;;21.74;21.41;97368.69;5074239;28;20018;-69
2022/03/27 12:57:19;;;;;;;;;;;;;;;21.84;21.53;97368.69;5074413;28;19957;-69
2022/03/27 12:59:45;;;;;;;;;;;;;;;21.93;21.92;97360.94;5074137;28;20358;-69
2022/03/27 13:02:27;;;;;;;;;;;;;;;21.95;20.74;97361.47;5074015;28;20324;-69
2022/03/27 13:04:56;;;;;;;;;;;;;;;22.00;20.76;97364.13;5074530;28;19964;-69